createdAt,value
2023-05-09T00:00:43.322Z,67.45
2023-05-09T00:03:10.176Z,67.63
2023-05-09T00:05:36.840Z,66.49
2023-05-09T00:08:03.673Z,67.13
2023-05-09T00:10:30.492Z,65.93
2023-05-09T00:12:57.281Z,64.72
2023-05-09T00:15:24.022Z,65.18
2023-05-09T00:17:50.829Z,65.29
2023-05-09T00:20:17.536Z,65.96
2023-05-09T00:22:44.299Z,66.54
2023-05-09T00:25:12.014Z,66.13
2023-05-09T00:27:38.936Z,66.74
2023-05-09T00:30:06.700Z,67.65
2023-05-09T00:32:34.184Z,67.79
2023-05-09T00:35:00.912Z,68.35
2023-05-09T00:37:29.423Z,68.78
2023-05-09T00:39:57.536Z,68.65
2023-05-09T00:42:24.359Z,70.72
2023-05-09T00:44:51.050Z,70.64
2023-05-09T00:47:18.023Z,71.41
2023-05-09T00:49:44.835Z,71.88
2023-05-09T00:52:11.587Z,71.90
2023-05-09T00:54:38.334Z,72.22
2023-05-09T00:57:05.006Z,72.85
2023-05-09T00:59:31.691Z,71.85
2023-05-09T01:01:58.617Z,71.64
2023-05-09T01:04:25.413Z,69.66
2023-05-09T01:07:01.825Z,70.47
2023-05-09T01:09:49.733Z,70.20
2023-05-09T01:13:09.467Z,70.65
2023-05-09T01:15:43.276Z,69.41
2023-05-09T01:18:19.667Z,69.32
2023-05-09T01:20:53.372Z,68.54
2023-05-09T01:23:38.765Z,66.85
2023-05-09T01:26:19.048Z,70.38
2023-05-09T01:29:23.005Z,69.12
2023-05-09T01:31:52.224Z,69.72
2023-05-09T01:34:26.322Z,70.13
2023-05-09T01:36:59.652Z,68.65
2023-05-09T01:39:28.281Z,69.28
2023-05-09T01:42:00.601Z,69.02
2023-05-09T01:44:34.459Z,70.05
2023-05-09T01:47:02.720Z,69.28
2023-05-09T01:49:33.761Z,68.27
2023-05-09T01:52:07.023Z,68.19
2023-05-09T01:54:36.309Z,68.05
2023-05-09T01:57:06.087Z,67.92
2023-05-09T01:59:34.830Z,67.26
2023-05-09T02:02:04.533Z,67.57
2023-05-09T02:04:32.946Z,67.51
2023-05-09T02:07:02.355Z,69.10
2023-05-09T02:09:29.009Z,68.42
2023-05-09T02:11:55.643Z,70.01
2023-05-09T02:14:22.343Z,69.08
2023-05-09T02:16:49.189Z,71.41
2023-05-09T02:19:15.884Z,71.94
2023-05-09T02:21:42.884Z,71.10
2023-05-09T02:24:09.658Z,70.61
2023-05-09T02:26:36.484Z,71.07
2023-05-09T02:29:06.852Z,72.09
2023-05-09T02:31:36.054Z,72.69
2023-05-09T02:34:06.951Z,71.46
2023-05-09T02:36:34.683Z,71.76
2023-05-09T02:39:02.209Z,70.18
2023-05-09T02:41:30.209Z,71.32
2023-05-09T02:43:56.812Z,72.46
2023-05-09T02:46:23.754Z,73.37
2023-05-09T02:48:50.472Z,72.30
2023-05-09T02:51:17.164Z,73.74
2023-05-09T02:53:43.811Z,74.08
2023-05-09T02:56:10.447Z,72.89
2023-05-09T02:58:37.371Z,72.36
2023-05-09T03:01:04.358Z,71.69
2023-05-09T03:03:31.655Z,73.00
2023-05-09T03:05:58.381Z,72.68
2023-05-09T03:08:25.075Z,71.23
2023-05-09T03:10:51.760Z,70.88
2023-05-09T03:13:18.430Z,71.47
2023-05-09T03:15:45.195Z,72.34
2023-05-09T03:18:12.081Z,71.42
2023-05-09T03:20:38.844Z,71.03
2023-05-09T03:23:05.481Z,69.93
2023-05-09T03:25:32.099Z,70.33
2023-05-09T03:27:58.741Z,70.14
2023-05-09T03:30:25.362Z,69.63
2023-05-09T03:32:52.020Z,69.29
2023-05-09T03:35:18.799Z,70.35
2023-05-09T03:37:45.435Z,70.20
2023-05-09T03:40:12.231Z,72.07
2023-05-09T03:42:38.852Z,73.29
2023-05-09T03:45:05.877Z,71.94
2023-05-09T03:47:32.539Z,70.63
2023-05-09T03:49:59.193Z,69.85
2023-05-09T03:52:25.851Z,69.38
2023-05-09T03:54:52.504Z,68.86
2023-05-09T03:57:19.139Z,68.69
2023-05-09T03:59:45.853Z,69.24
2023-05-09T04:02:12.595Z,69.10
2023-05-09T04:04:39.597Z,68.64
2023-05-09T04:07:06.269Z,68.99
2023-05-09T04:09:33.174Z,69.89
2023-05-09T04:11:59.771Z,70.27
2023-05-09T04:14:26.416Z,68.99
2023-05-09T04:16:53.112Z,70.18
2023-05-09T04:19:19.746Z,70.81
2023-05-09T04:21:46.462Z,69.85
2023-05-09T04:24:13.225Z,69.82
2023-05-09T04:26:39.917Z,69.61
2023-05-09T04:29:06.604Z,69.45
2023-05-09T04:31:33.428Z,70.33
2023-05-09T04:34:00.101Z,69.53
2023-05-09T04:36:26.759Z,69.75
2023-05-09T04:38:53.411Z,69.00
2023-05-09T04:41:20.020Z,68.60
2023-05-09T04:43:46.662Z,67.79
2023-05-09T04:46:13.385Z,68.52
2023-05-09T04:48:40.358Z,68.86
2023-05-09T04:51:07.187Z,69.23
2023-05-09T04:53:33.826Z,70.22
2023-05-09T04:56:00.490Z,69.35
2023-05-09T04:58:27.131Z,68.35
2023-05-09T05:00:53.728Z,68.42
2023-05-09T05:03:20.380Z,67.98
2023-05-09T05:05:47.082Z,67.43
2023-05-09T05:08:13.808Z,66.82
2023-05-09T05:10:40.406Z,65.14
2023-05-09T05:13:07.159Z,65.39
2023-05-09T05:15:33.929Z,63.18
2023-05-09T05:18:00.548Z,64.51
2023-05-09T05:20:27.698Z,65.15
2023-05-09T05:22:54.497Z,64.37
2023-05-09T05:25:21.171Z,64.26
2023-05-09T05:27:47.888Z,65.11
2023-05-09T05:30:14.649Z,65.27
2023-05-09T05:32:41.665Z,64.32
2023-05-09T05:35:08.685Z,64.47
2023-05-09T05:37:35.361Z,63.87
2023-05-09T05:40:02.043Z,64.06
2023-05-09T05:42:28.717Z,63.94
2023-05-09T05:44:55.513Z,62.72
2023-05-09T05:47:22.117Z,64.71
2023-05-09T05:49:49.133Z,65.30
2023-05-09T05:52:15.713Z,65.91
2023-05-09T05:54:42.374Z,65.31
2023-05-09T05:57:09.007Z,66.42
2023-05-09T05:59:35.692Z,65.49
2023-05-09T06:02:02.346Z,65.22
2023-05-09T06:04:30.261Z,63.21
2023-05-09T06:06:57.016Z,64.38
2023-05-09T06:09:23.700Z,63.93
2023-05-09T06:11:50.371Z,62.04
2023-05-09T06:14:17.001Z,62.91
2023-05-09T06:16:43.709Z,62.41
2023-05-09T06:19:10.317Z,61.38
2023-05-09T06:21:37.004Z,60.00
2023-05-09T06:24:10.130Z,58.27
2023-05-09T06:26:42.048Z,56.76
2023-05-09T06:29:08.881Z,55.05
2023-05-09T06:31:35.580Z,55.24
2023-05-09T06:34:02.195Z,54.27
2023-05-09T06:36:28.854Z,54.49
2023-05-09T06:38:55.487Z,54.66
2023-05-09T06:41:22.095Z,56.14
2023-05-09T06:43:49.922Z,54.78
2023-05-09T06:46:16.654Z,56.85
2023-05-09T06:48:43.460Z,55.54
2023-05-09T06:51:10.124Z,55.28
2023-05-09T06:53:37.096Z,55.08
2023-05-09T06:56:04.620Z,55.44
2023-05-09T06:58:31.368Z,55.96
2023-05-09T07:00:58.049Z,56.33
2023-05-09T07:03:24.751Z,56.98
2023-05-09T07:05:51.402Z,55.60
2023-05-09T07:08:18.081Z,54.78
2023-05-09T07:10:44.869Z,55.49
2023-05-09T07:13:11.594Z,54.32
2023-05-09T07:15:41.786Z,54.14
2023-05-09T07:18:09.538Z,53.23
2023-05-09T07:20:36.395Z,50.38
2023-05-09T07:23:03.757Z,48.89
2023-05-09T07:25:30.522Z,48.20
2023-05-09T07:27:57.134Z,47.54
2023-05-09T07:30:23.871Z,47.42
2023-05-09T07:32:50.716Z,49.97
2023-05-09T07:35:18.653Z,49.73
2023-05-09T07:37:45.485Z,49.81
2023-05-09T07:40:12.782Z,49.44
2023-05-09T07:42:39.639Z,48.27
2023-05-09T07:45:06.987Z,50.26
2023-05-09T07:47:33.685Z,50.79
2023-05-09T07:50:00.368Z,50.08
2023-05-09T07:52:26.994Z,49.08
2023-05-09T07:54:53.643Z,46.96
2023-05-09T07:57:20.273Z,47.13
2023-05-09T07:59:50.104Z,48.21
2023-05-09T08:02:16.842Z,44.89
2023-05-09T08:04:43.593Z,44.01
2023-05-09T08:07:10.226Z,42.37
2023-05-09T08:09:36.967Z,41.59
2023-05-09T08:12:03.854Z,43.44
2023-05-09T08:14:30.464Z,45.84
2023-05-09T08:16:57.325Z,46.65
2023-05-09T08:19:23.956Z,49.31
2023-05-09T08:21:50.563Z,51.07
2023-05-09T08:24:17.224Z,49.02
2023-05-09T08:26:46.692Z,48.89
2023-05-09T08:29:13.355Z,50.26
2023-05-09T08:31:40.285Z,49.99
2023-05-09T08:34:06.880Z,49.80
2023-05-09T08:36:33.491Z,49.16
2023-05-09T08:39:00.425Z,50.15
2023-05-09T08:41:27.109Z,49.61
2023-05-09T08:43:55.123Z,51.23
2023-05-09T08:46:49.758Z,50.63
2023-05-09T08:49:17.080Z,49.72
2023-05-09T08:51:45.077Z,51.22
2023-05-09T08:54:12.091Z,51.29
2023-05-09T08:56:40.720Z,49.73
2023-05-09T08:59:07.664Z,50.38
2023-05-09T09:01:34.859Z,48.76
2023-05-09T09:04:05.439Z,49.10
2023-05-09T09:06:34.843Z,48.63
2023-05-09T09:09:02.334Z,49.92
2023-05-09T09:11:29.896Z,52.17
2023-05-09T09:14:03.515Z,51.95
2023-05-09T09:16:32.098Z,50.98
2023-05-09T09:18:59.128Z,51.76
2023-05-09T09:21:26.086Z,50.41
2023-05-09T09:23:55.538Z,48.77
2023-05-09T09:26:22.335Z,49.79
2023-05-09T09:28:48.957Z,49.47
2023-05-09T09:31:26.195Z,50.48
2023-05-09T09:34:00.185Z,50.12
2023-05-09T09:36:31.061Z,51.18
2023-05-09T09:39:04.023Z,52.30
2023-05-09T09:41:35.968Z,50.73
2023-05-09T09:44:10.666Z,50.81
2023-05-09T09:46:49.053Z,48.91
2023-05-09T09:49:18.407Z,50.67
2023-05-09T09:51:50.207Z,50.65
2023-05-09T09:54:17.246Z,51.57
2023-05-09T09:56:47.098Z,52.17
2023-05-09T09:59:16.770Z,49.93
2023-05-09T10:02:07.447Z,50.99
2023-05-09T10:04:37.771Z,49.67
2023-05-09T10:07:07.034Z,50.06
2023-05-09T10:09:35.316Z,49.55
2023-05-09T10:12:04.610Z,48.81
2023-05-09T10:14:35.137Z,49.25
2023-05-09T10:17:04.467Z,48.25
2023-05-09T10:19:31.888Z,50.20
2023-05-09T10:22:04.743Z,51.45
2023-05-09T10:24:51.072Z,49.96
2023-05-09T10:27:22.748Z,52.34
2023-05-09T10:29:57.278Z,50.41
2023-05-09T10:32:30.908Z,50.80
2023-05-09T10:35:05.190Z,49.71
2023-05-09T10:37:33.347Z,50.78
2023-05-09T10:40:02.918Z,49.68
2023-05-09T10:42:30.377Z,48.78
2023-05-09T10:44:57.926Z,45.86
2023-05-09T10:47:29.680Z,45.99
2023-05-09T10:49:56.407Z,47.74
2023-05-09T10:52:23.401Z,48.71
2023-05-09T10:55:16.314Z,46.85
2023-05-09T10:57:53.362Z,46.14
2023-05-09T11:00:25.121Z,46.59
2023-05-09T11:03:18.366Z,46.38
2023-05-09T11:05:46.657Z,44.16
2023-05-09T11:08:26.755Z,45.60
2023-05-09T11:10:56.052Z,46.48
2023-05-09T11:13:31.100Z,46.92
2023-05-09T11:16:00.837Z,46.55
2023-05-09T11:18:28.676Z,47.97
2023-05-09T11:20:56.510Z,48.76
2023-05-09T11:23:27.391Z,49.00
2023-05-09T11:26:05.454Z,48.84
2023-05-09T11:28:37.549Z,48.83
2023-05-09T11:31:12.762Z,48.25
2023-05-09T11:33:41.131Z,47.50
2023-05-09T11:36:24.177Z,48.72
2023-05-09T11:39:05.328Z,48.89
2023-05-09T11:41:39.977Z,47.61
2023-05-09T11:44:17.908Z,48.81
2023-05-09T11:46:48.917Z,47.26
2023-05-09T11:49:16.161Z,48.82
2023-05-09T11:51:42.818Z,49.99
2023-05-09T11:54:09.778Z,49.86
2023-05-09T11:56:40.147Z,47.27
2023-05-09T11:59:07.822Z,48.22
2023-05-09T12:01:36.348Z,48.31
2023-05-09T12:04:03.125Z,46.30
2023-05-09T12:06:30.176Z,46.93
2023-05-09T12:08:56.882Z,46.48
2023-05-09T12:11:24.913Z,44.80
2023-05-09T12:13:52.902Z,45.00
2023-05-09T12:16:20.816Z,46.38
2023-05-09T12:18:49.759Z,47.00
2023-05-09T12:21:18.198Z,46.86
2023-05-09T12:23:48.394Z,47.03
2023-05-09T12:26:15.775Z,47.32
2023-05-09T12:28:43.439Z,47.16
2023-05-09T12:31:10.529Z,47.23
2023-05-09T12:33:38.727Z,46.71
2023-05-09T12:36:05.743Z,47.53
2023-05-09T12:38:33.071Z,45.90
2023-05-09T12:41:03.947Z,46.78
2023-05-09T12:43:35.559Z,45.46
2023-05-09T12:46:03.210Z,47.68
2023-05-09T12:48:36.062Z,47.53
2023-05-09T12:51:06.315Z,48.28
2023-05-09T12:53:41.354Z,50.33
2023-05-09T12:56:17.235Z,50.71
2023-05-09T12:58:51.519Z,50.70
2023-05-09T13:01:19.485Z,51.57
2023-05-09T13:04:02.056Z,54.63
2023-05-09T13:06:28.896Z,53.18
2023-05-09T13:09:00.305Z,54.57
2023-05-09T13:11:28.661Z,54.49
2023-05-09T13:13:55.693Z,52.70
2023-05-09T13:16:22.378Z,55.24
2023-05-09T13:18:49.093Z,55.54
2023-05-09T13:21:15.767Z,54.97
2023-05-09T13:23:42.376Z,56.82
2023-05-09T13:26:10.377Z,54.60
2023-05-09T13:28:37.077Z,54.36
2023-05-09T13:31:03.893Z,54.82
2023-05-09T13:33:30.585Z,57.67
2023-05-09T13:35:57.402Z,55.91
2023-05-09T13:38:24.025Z,55.55
2023-05-09T13:40:50.834Z,57.79
2023-05-09T13:43:17.443Z,57.76
2023-05-09T13:45:44.100Z,58.47
2023-05-09T13:48:10.779Z,58.73
2023-05-09T13:50:37.500Z,59.79
2023-05-09T13:53:04.110Z,61.50
2023-05-09T13:55:30.797Z,62.94
2023-05-09T13:57:57.633Z,64.15
2023-05-09T14:00:24.384Z,63.72
2023-05-09T14:02:51.514Z,66.14
2023-05-09T14:05:18.495Z,66.78
2023-05-09T14:07:45.286Z,67.62
2023-05-09T14:10:12.783Z,66.53
2023-05-09T14:12:40.400Z,67.74
2023-05-09T14:15:08.397Z,66.71
2023-05-09T14:17:35.284Z,67.67
2023-05-09T14:20:02.279Z,68.25
2023-05-09T14:22:29.158Z,69.85
2023-05-09T14:24:55.765Z,68.63
2023-05-09T14:27:22.635Z,71.23
2023-05-09T14:29:51.816Z,70.74
2023-05-09T14:32:18.454Z,71.52
2023-05-09T14:34:45.297Z,71.95
2023-05-09T14:37:11.936Z,71.00
2023-05-09T14:39:38.733Z,70.52
2023-05-09T14:42:05.415Z,70.25
2023-05-09T14:44:32.181Z,69.02
2023-05-09T14:46:59.027Z,67.86
2023-05-09T14:49:30.080Z,66.00
2023-05-09T14:51:56.723Z,68.21
2023-05-09T14:54:23.435Z,69.70
2023-05-09T14:56:50.066Z,70.67
2023-05-09T14:59:16.757Z,70.05
2023-05-09T15:01:43.450Z,69.07
2023-05-09T15:04:10.095Z,72.00
2023-05-09T15:06:39.734Z,71.60
2023-05-09T15:09:06.591Z,72.01
2023-05-09T15:11:46.232Z,73.19
2023-05-09T15:14:14.896Z,75.32
2023-05-09T15:16:42.198Z,74.11
2023-05-09T15:19:09.058Z,76.20
2023-05-09T15:21:37.100Z,74.66
2023-05-09T15:24:04.759Z,74.95
2023-05-09T15:26:31.464Z,76.41
2023-05-09T15:28:58.133Z,77.98
2023-05-09T15:31:24.827Z,76.26
2023-05-09T15:33:51.617Z,76.90
2023-05-09T15:36:18.226Z,73.97
2023-05-09T15:38:44.917Z,73.93
2023-05-09T15:41:11.594Z,73.14
2023-05-09T15:43:38.229Z,73.50
2023-05-09T15:46:04.999Z,74.19
2023-05-09T15:48:31.685Z,73.19
2023-05-09T15:50:58.323Z,76.50
2023-05-09T15:53:24.968Z,75.56
2023-05-09T15:55:51.636Z,75.77
2023-05-09T15:58:18.259Z,78.04
2023-05-09T16:00:44.975Z,79.08
2023-05-09T16:03:11.692Z,78.93
2023-05-09T16:05:38.462Z,78.11
2023-05-09T16:08:05.181Z,78.35
2023-05-09T16:10:33.403Z,78.44
2023-05-09T16:13:00.190Z,77.48
2023-05-09T16:15:26.906Z,76.29
2023-05-09T16:17:53.640Z,75.54
2023-05-09T16:20:20.533Z,75.90
2023-05-09T16:22:47.167Z,76.77
2023-05-09T16:25:14.033Z,79.18
2023-05-09T16:27:40.791Z,79.56
2023-05-09T16:30:08.095Z,82.04
2023-05-09T16:32:34.751Z,81.67
2023-05-09T16:35:01.481Z,82.34
2023-05-09T16:37:28.121Z,81.18
2023-05-09T16:39:54.771Z,82.81
2023-05-09T16:42:21.453Z,82.74
2023-05-09T16:44:48.318Z,82.73
2023-05-09T16:47:16.112Z,82.58
2023-05-09T16:49:42.757Z,81.29
2023-05-09T16:52:09.443Z,82.56
2023-05-09T16:54:36.054Z,84.04
2023-05-09T16:57:02.782Z,84.20
2023-05-09T16:59:29.481Z,84.42
2023-05-09T17:01:56.122Z,84.42
2023-05-09T17:04:22.898Z,85.51
2023-05-09T17:06:49.530Z,86.71
2023-05-09T17:09:16.184Z,86.39
2023-05-09T17:11:42.930Z,85.56
2023-05-09T17:14:09.592Z,85.74
2023-05-09T17:16:38.091Z,86.35
2023-05-09T17:19:05.137Z,88.09
2023-05-09T17:21:31.828Z,87.55
2023-05-09T17:23:58.455Z,88.40
2023-05-09T17:26:25.167Z,89.15
2023-05-09T17:28:51.833Z,88.14
2023-05-09T17:31:18.554Z,87.93
2023-05-09T17:33:45.236Z,88.77
2023-05-09T17:36:11.932Z,87.54
2023-05-09T17:38:38.637Z,89.77
2023-05-09T17:41:05.526Z,89.24
2023-05-09T17:43:32.295Z,89.14
2023-05-09T17:45:58.956Z,89.48
2023-05-09T17:48:25.830Z,87.90
2023-05-09T17:50:52.474Z,88.10
2023-05-09T17:53:19.334Z,88.87
2023-05-09T17:55:46.002Z,90.79
2023-05-09T17:58:12.651Z,90.50
2023-05-09T18:00:39.280Z,90.50
2023-05-09T18:03:09.276Z,89.74
2023-05-09T18:05:38.863Z,91.05
2023-05-09T18:08:05.536Z,90.10
2023-05-09T18:10:32.260Z,89.32
2023-05-09T18:12:58.952Z,89.39
2023-05-09T18:15:25.623Z,89.04
2023-05-09T18:17:52.368Z,88.60
2023-05-09T18:20:19.135Z,88.02
2023-05-09T18:22:46.939Z,86.95
2023-05-09T18:25:13.635Z,87.12
2023-05-09T18:27:40.248Z,85.92
2023-05-09T18:30:07.581Z,87.92
2023-05-09T18:32:34.239Z,86.89
2023-05-09T18:35:00.894Z,84.61
2023-05-09T18:37:27.587Z,84.32
2023-05-09T18:39:55.290Z,85.59
2023-05-09T18:42:21.946Z,84.33
2023-05-09T18:44:48.644Z,83.78
2023-05-09T18:47:15.689Z,81.46
2023-05-09T18:49:42.600Z,80.51
2023-05-09T18:52:09.579Z,82.26
2023-05-09T18:54:36.346Z,80.59
2023-05-09T18:57:03.139Z,78.88
2023-05-09T18:59:29.763Z,78.38
2023-05-09T19:01:56.391Z,80.18
2023-05-09T19:04:23.143Z,80.05
2023-05-09T19:06:49.817Z,79.42
2023-05-09T19:09:16.479Z,81.71
2023-05-09T19:11:43.246Z,81.80
2023-05-09T19:14:10.064Z,81.81
2023-05-09T19:16:36.748Z,81.60
2023-05-09T19:19:03.419Z,80.27
2023-05-09T19:21:30.052Z,79.07
2023-05-09T19:23:56.749Z,78.84
2023-05-09T19:26:23.371Z,78.96
2023-05-09T19:28:50.124Z,76.83
2023-05-09T19:31:17.615Z,76.86
2023-05-09T19:33:44.582Z,76.48
2023-05-09T19:36:11.206Z,77.89
2023-05-09T19:38:37.869Z,79.26
2023-05-09T19:41:04.470Z,78.30
2023-05-09T19:43:31.088Z,79.70
2023-05-09T19:45:57.802Z,81.94
2023-05-09T19:48:24.438Z,84.96
2023-05-09T19:50:56.568Z,85.89
2023-05-09T19:53:23.532Z,88.58
2023-05-09T19:55:50.192Z,89.66
2023-05-09T19:58:17.750Z,89.88
2023-05-09T20:00:45.164Z,89.62
2023-05-09T20:03:12.337Z,88.71
2023-05-09T20:05:39.056Z,90.22
2023-05-09T20:08:05.765Z,89.01
2023-05-09T20:10:32.349Z,87.93
2023-05-09T20:12:58.964Z,87.90
2023-05-09T20:15:25.860Z,87.33
2023-05-09T20:17:52.499Z,86.46
2023-05-09T20:20:19.362Z,87.03
2023-05-09T20:22:45.983Z,86.06
2023-05-09T20:25:12.620Z,88.18
2023-05-09T20:27:39.281Z,88.32
2023-05-09T20:30:06.527Z,89.06
2023-05-09T20:32:34.640Z,89.15
2023-05-09T20:35:01.337Z,88.31
2023-05-09T20:37:27.961Z,87.28
2023-05-09T20:39:54.576Z,87.81
2023-05-09T20:42:25.001Z,87.07
2023-05-09T20:44:52.210Z,86.91
2023-05-09T20:47:18.844Z,85.41
2023-05-09T20:49:45.599Z,87.00
2023-05-09T20:52:12.421Z,85.67
2023-05-09T20:54:39.032Z,85.56
2023-05-09T20:57:05.669Z,84.73
2023-05-09T20:59:32.301Z,86.12
2023-05-09T21:01:59.006Z,84.74
2023-05-09T21:04:25.701Z,86.29
2023-05-09T21:06:52.338Z,86.29
2023-05-09T21:09:19.475Z,87.15
2023-05-09T21:11:46.221Z,87.60
2023-05-09T21:14:12.858Z,88.44
2023-05-09T21:16:39.510Z,85.78
2023-05-09T21:19:06.805Z,84.82
2023-05-09T21:21:33.500Z,84.95
2023-05-09T21:24:01.146Z,83.51
2023-05-09T21:26:27.738Z,82.95
2023-05-09T21:28:54.593Z,82.67
2023-05-09T21:31:21.229Z,81.17
2023-05-09T21:33:47.900Z,81.70
2023-05-09T21:36:14.572Z,83.68
2023-05-09T21:38:41.243Z,83.25
2023-05-09T21:41:07.872Z,80.93
2023-05-09T21:43:34.700Z,80.46
2023-05-09T21:46:03.573Z,81.35
2023-05-09T21:48:30.264Z,81.87
2023-05-09T21:50:56.972Z,79.91
2023-05-09T21:53:23.595Z,79.08
2023-05-09T21:55:50.210Z,77.42
2023-05-09T21:58:16.846Z,77.81
2023-05-09T22:00:43.432Z,76.61
2023-05-09T22:03:10.159Z,75.81
2023-05-09T22:05:36.984Z,76.54
2023-05-09T22:08:03.750Z,77.79
2023-05-09T22:10:30.341Z,77.06
2023-05-09T22:12:56.950Z,78.07
2023-05-09T22:15:23.713Z,79.04
2023-05-09T22:17:50.391Z,77.91
2023-05-09T22:20:17.264Z,77.31
2023-05-09T22:22:44.196Z,78.37
2023-05-09T22:25:10.810Z,77.98
2023-05-09T22:27:38.268Z,79.68
2023-05-09T22:30:05.699Z,77.86
2023-05-09T22:32:32.361Z,77.80
2023-05-09T22:34:58.998Z,77.28
2023-05-09T22:37:25.611Z,76.75
2023-05-09T22:39:52.295Z,75.08
2023-05-09T22:42:18.993Z,76.12
2023-05-09T22:44:45.953Z,75.10
2023-05-09T22:47:12.634Z,73.18
2023-05-09T22:49:39.244Z,74.73
2023-05-09T22:52:05.932Z,74.90
2023-05-09T22:54:32.763Z,73.02
2023-05-09T22:56:59.467Z,74.61
2023-05-09T22:59:26.113Z,73.82
2023-05-09T23:01:52.721Z,74.09
2023-05-09T23:04:19.352Z,74.39
2023-05-09T23:06:45.970Z,75.02
2023-05-09T23:09:12.551Z,76.44
2023-05-09T23:11:39.197Z,77.45
2023-05-09T23:14:05.791Z,75.78
2023-05-09T23:16:32.664Z,76.90
2023-05-09T23:18:59.313Z,77.52
2023-05-09T23:21:26.042Z,77.70
2023-05-09T23:23:52.657Z,79.06
2023-05-09T23:26:19.334Z,78.86
2023-05-09T23:28:46.318Z,78.99
2023-05-09T23:31:13.079Z,79.85
2023-05-09T23:33:39.747Z,81.61
2023-05-09T23:36:06.734Z,81.67
2023-05-09T23:38:33.342Z,80.84
2023-05-09T23:41:00.027Z,79.80
2023-05-09T23:43:26.744Z,78.42
2023-05-09T23:45:53.537Z,76.80
2023-05-09T23:48:20.161Z,76.60
2023-05-09T23:50:46.794Z,76.29
2023-05-09T23:53:13.397Z,77.78
2023-05-09T23:55:39.989Z,78.39
2023-05-09T23:58:06.604Z,76.57
